createdAt,value
2018-09-23T00:00:10.442Z,12.40
2018-09-23T00:06:16.166Z,12.40
2018-09-23T00:12:21.398Z,12.40
2018-09-23T00:18:25.194Z,12.40
2018-09-23T00:24:28.901Z,12.40
2018-09-23T00:30:32.671Z,12.40
2018-09-23T00:36:36.137Z,12.40
2018-09-23T00:42:40.335Z,12.40
2018-09-23T00:48:44.561Z,12.40
2018-09-23T00:54:48.460Z,12.40
2018-09-23T01:00:52.055Z,12.40
2018-09-23T01:06:55.880Z,12.40
2018-09-23T01:13:00.490Z,12.40
2018-09-23T01:19:05.950Z,12.40
2018-09-23T01:25:10.226Z,12.40
2018-09-23T01:31:15.551Z,12.30
2018-09-23T01:37:19.574Z,12.30
2018-09-23T01:43:23.975Z,12.40
2018-09-23T01:49:28.165Z,12.40
2018-09-23T01:55:32.151Z,12.40
2018-09-23T02:01:37.159Z,12.40
2018-09-23T02:07:41.433Z,12.40
2018-09-23T02:13:45.603Z,12.50
2018-09-23T02:19:49.504Z,12.50
2018-09-23T02:25:54.046Z,12.50
2018-09-23T02:31:57.491Z,12.60
2018-09-23T02:38:01.063Z,12.60
2018-09-23T02:44:04.826Z,12.60
2018-09-23T02:50:08.661Z,12.60
2018-09-23T02:56:12.598Z,12.60
2018-09-23T03:02:16.489Z,12.60
2018-09-23T03:08:21.918Z,12.60
2018-09-23T03:14:25.530Z,12.60
2018-09-23T03:20:29.194Z,12.60
2018-09-23T03:26:32.984Z,12.60
2018-09-23T03:32:37.417Z,12.60
2018-09-23T03:38:41.247Z,12.50
2018-09-23T03:44:44.757Z,12.50
2018-09-23T03:50:48.483Z,12.50
2018-09-23T03:56:52.987Z,12.50
2018-09-23T04:02:56.777Z,12.50
2018-09-23T04:09:01.558Z,12.50
2018-09-23T04:15:05.500Z,12.50
2018-09-23T04:21:10.215Z,12.50
2018-09-23T04:27:14.598Z,12.50
2018-09-23T04:33:18.943Z,12.50
2018-09-23T04:39:23.380Z,12.50
2018-09-23T04:45:27.490Z,12.50
2018-09-23T04:51:32.234Z,12.40
2018-09-23T04:57:35.985Z,12.50
2018-09-23T05:03:41.925Z,12.50
2018-09-23T05:09:45.476Z,12.50
2018-09-23T05:15:49.718Z,12.60
2018-09-23T05:21:54.585Z,12.60
2018-09-23T05:27:58.883Z,12.60
2018-09-23T05:34:03.837Z,12.60
2018-09-23T05:40:08.116Z,12.60
2018-09-23T05:46:11.950Z,12.60
2018-09-23T05:52:16.614Z,12.60
2018-09-23T05:58:20.221Z,12.70
2018-09-23T06:04:23.948Z,12.70
2018-09-23T06:10:27.762Z,12.70
2018-09-23T06:16:31.726Z,12.80
2018-09-23T06:22:35.592Z,12.80
2018-09-23T06:28:40.000Z,12.80
2018-09-23T06:34:45.404Z,12.90
2018-09-23T06:40:49.505Z,12.90
2018-09-23T06:46:53.151Z,12.90
2018-09-23T06:52:57.680Z,13.00
2018-09-23T06:59:01.521Z,13.10
2018-09-23T07:05:06.263Z,13.10
2018-09-23T07:11:10.088Z,13.10
2018-09-23T07:17:14.196Z,13.20
2018-09-23T07:23:18.054Z,13.20
2018-09-23T07:29:23.551Z,13.40
2018-09-23T07:35:28.138Z,13.50
2018-09-23T07:41:33.850Z,13.70
2018-09-23T07:47:39.254Z,13.70
2018-09-23T07:53:43.794Z,13.70
2018-09-23T07:59:49.135Z,13.90
2018-09-23T08:05:54.352Z,14.00
2018-09-23T08:11:59.344Z,14.10
2018-09-23T08:18:03.868Z,14.10
2018-09-23T08:24:07.869Z,14.10
2018-09-23T08:30:12.499Z,14.10
2018-09-23T08:36:16.192Z,14.00
2018-09-23T08:42:20.134Z,13.90
2018-09-23T08:48:24.753Z,14.00
2018-09-23T08:54:32.951Z,14.00
2018-09-23T09:00:37.564Z,14.20
2018-09-23T09:06:41.725Z,14.40
2018-09-23T09:12:45.268Z,14.20
2018-09-23T09:18:50.003Z,14.10
2018-09-23T09:24:53.810Z,14.10
2018-09-23T09:30:57.354Z,14.10
2018-09-23T09:37:01.002Z,14.20
2018-09-23T09:43:05.843Z,14.30
2018-09-23T09:49:09.622Z,14.40
2018-09-23T09:55:13.731Z,14.40
2018-09-23T10:01:17.907Z,14.30
2018-09-23T10:07:21.595Z,14.30
2018-09-23T10:13:25.862Z,14.20
2018-09-23T10:19:30.900Z,14.10
2018-09-23T10:25:35.316Z,13.90
2018-09-23T10:31:39.879Z,13.80
2018-09-23T10:37:44.745Z,13.60
2018-09-23T10:43:48.831Z,13.50
2018-09-23T10:49:52.412Z,13.50
2018-09-23T10:55:57.233Z,13.40
2018-09-23T11:02:02.035Z,13.30
2018-09-23T11:08:05.939Z,13.20
2018-09-23T11:14:10.743Z,13.20
2018-09-23T11:20:15.262Z,13.30
2018-09-23T11:26:19.068Z,13.30
2018-09-23T11:32:22.983Z,13.40
2018-09-23T11:38:27.082Z,13.50
2018-09-23T11:44:30.680Z,13.50
2018-09-23T11:50:34.140Z,13.40
2018-09-23T11:56:37.617Z,13.20
2018-09-23T12:02:41.454Z,13.00
2018-09-23T12:08:45.498Z,12.80
2018-09-23T12:14:49.368Z,12.70
2018-09-23T12:20:53.266Z,12.50
2018-09-23T12:26:56.929Z,12.30
2018-09-23T12:33:00.580Z,12.10
2018-09-23T12:39:08.447Z,11.90
2018-09-23T12:45:12.345Z,11.80
2018-09-23T12:51:16.768Z,11.80
2018-09-23T12:57:21.800Z,11.70
2018-09-23T13:03:26.251Z,11.60
2018-09-23T13:09:30.164Z,11.60
2018-09-23T13:15:34.097Z,11.70
2018-09-23T13:21:38.682Z,11.70
2018-09-23T13:27:43.610Z,11.70
2018-09-23T13:33:47.949Z,11.70
2018-09-23T13:39:52.257Z,11.80
2018-09-23T13:46:01.536Z,11.80
2018-09-23T13:52:06.123Z,11.90
2018-09-23T13:58:09.906Z,11.80
2018-09-23T14:04:14.213Z,11.70
2018-09-23T14:10:18.631Z,11.50
2018-09-23T14:16:23.674Z,11.50
2018-09-23T14:22:27.937Z,11.70
2018-09-23T14:28:32.606Z,11.80
2018-09-23T14:34:38.087Z,11.70
2018-09-23T14:40:42.477Z,11.60
2018-09-23T14:46:46.988Z,11.60
2018-09-23T14:52:50.862Z,11.60
2018-09-23T14:58:54.608Z,11.60
2018-09-23T15:04:58.428Z,11.50
2018-09-23T15:11:03.594Z,11.40
2018-09-23T15:17:07.490Z,11.50
2018-09-23T15:23:12.961Z,11.40
2018-09-23T15:29:17.318Z,11.30
2018-09-23T15:35:20.820Z,11.20
2018-09-23T15:41:24.672Z,11.00
2018-09-23T15:47:28.781Z,11.00
2018-09-23T15:53:32.333Z,11.00
2018-09-23T15:59:39.739Z,11.00
2018-09-23T16:05:43.636Z,11.00
2018-09-23T16:11:47.584Z,10.90
2018-09-23T16:17:52.874Z,10.90
2018-09-23T16:23:56.625Z,10.80
2018-09-23T16:30:01.160Z,10.70
2018-09-23T16:36:04.997Z,10.50
2018-09-23T16:42:09.094Z,10.50
2018-09-23T16:48:13.897Z,10.50
2018-09-23T16:54:19.691Z,10.50
2018-09-23T17:00:24.245Z,10.60
2018-09-23T17:06:29.111Z,10.60
2018-09-23T17:12:32.646Z,10.60
2018-09-23T17:18:36.690Z,10.50
2018-09-23T17:24:40.793Z,10.50
2018-09-23T17:30:45.778Z,10.40
2018-09-23T17:36:49.959Z,10.40
2018-09-23T17:42:53.812Z,10.40
2018-09-23T17:48:58.006Z,10.40
2018-09-23T17:55:03.049Z,10.40
2018-09-23T18:01:06.866Z,10.40
2018-09-23T18:07:10.602Z,10.40
2018-09-23T18:13:15.707Z,10.40
2018-09-23T18:19:19.436Z,10.40
2018-09-23T18:25:24.792Z,10.40
2018-09-23T18:31:28.323Z,10.30
2018-09-23T18:37:31.867Z,10.20
2018-09-23T18:46:39.923Z,10.20
2018-09-23T18:52:43.694Z,10.20
2018-09-23T18:58:47.195Z,10.20
2018-09-23T19:04:50.819Z,10.20
2018-09-23T19:10:54.835Z,10.30
2018-09-23T19:16:58.567Z,10.30
2018-09-23T19:23:07.501Z,10.30
2018-09-23T19:29:11.083Z,10.30
2018-09-23T19:35:15.262Z,10.30
2018-09-23T19:41:18.748Z,10.30
2018-09-23T19:47:22.309Z,10.30
2018-09-23T19:53:25.858Z,10.30
2018-09-23T19:59:29.484Z,10.30
2018-09-23T20:05:34.079Z,10.30
2018-09-23T20:11:38.567Z,10.40
2018-09-23T20:17:43.619Z,10.40
2018-09-23T20:23:47.440Z,10.40
2018-09-23T20:29:51.356Z,10.40
2018-09-23T20:35:56.176Z,10.40
2018-09-23T20:42:00.403Z,10.40
2018-09-23T20:48:04.290Z,10.30
2018-09-23T20:54:08.235Z,10.20
2018-09-23T21:00:12.369Z,10.20
2018-09-23T21:06:17.080Z,10.10
2018-09-23T21:12:20.896Z,10.10
2018-09-23T21:18:24.682Z,10.10
2018-09-23T21:24:28.895Z,10.10
2018-09-23T21:30:34.060Z,10.10
2018-09-23T21:36:38.496Z,10.00
2018-09-23T21:42:42.093Z,9.80
2018-09-23T21:48:46.516Z,9.70
2018-09-23T21:54:49.958Z,9.60
2018-09-23T22:00:53.806Z,9.60
2018-09-23T22:06:58.312Z,9.50
2018-09-23T22:13:02.084Z,9.40
2018-09-23T22:19:06.352Z,9.40
2018-09-23T22:25:09.947Z,9.30
2018-09-23T22:31:13.702Z,9.20
2018-09-23T22:37:17.442Z,9.20
2018-09-23T22:43:21.667Z,9.10
2018-09-23T22:49:26.378Z,9.10
2018-09-23T22:55:31.898Z,9.10
2018-09-23T23:01:35.625Z,9.00
2018-09-23T23:07:40.470Z,9.00
2018-09-23T23:13:44.153Z,8.90
2018-09-23T23:19:47.898Z,8.90
2018-09-23T23:25:51.635Z,8.90
2018-09-23T23:31:55.736Z,8.80
2018-09-23T23:38:00.211Z,8.80
2018-09-23T23:44:04.143Z,8.80
2018-09-23T23:50:08.882Z,8.70
2018-09-23T23:56:12.483Z,8.70
